createdAt,value
2022-12-15T00:00:47.189Z,28.70
2022-12-15T00:03:46.350Z,37.00
2022-12-15T00:06:33.392Z,42.00
2022-12-15T00:09:20.779Z,36.60
2022-12-15T00:12:07.964Z,29.80
2022-12-15T00:14:54.591Z,22.30
2022-12-15T00:17:41.016Z,29.20
2022-12-15T00:20:28.485Z,32.80
2022-12-15T00:23:15.430Z,35.40
2022-12-15T00:26:03.000Z,33.00
2022-12-15T00:28:49.570Z,29.60
2022-12-15T00:31:36.228Z,30.50
2022-12-15T00:34:22.698Z,26.50
2022-12-15T00:37:09.825Z,30.70
2022-12-15T00:39:37.859Z,31.80
2022-12-15T00:42:07.424Z,23.60
2022-12-15T00:44:37.373Z,27.90
2022-12-15T00:47:06.327Z,28.90
2022-12-15T00:49:53.056Z,28.60
2022-12-15T00:52:40.096Z,20.40
2022-12-15T00:55:27.505Z,37.80
2022-12-15T00:58:14.348Z,27.40
2022-12-15T01:01:01.166Z,18.00
2022-12-15T01:03:47.734Z,23.80
2022-12-15T01:06:37.162Z,35.40
2022-12-15T01:09:26.851Z,34.60
2022-12-15T01:12:14.285Z,27.10
2022-12-15T01:15:01.148Z,23.70
2022-12-15T01:17:47.819Z,26.70
2022-12-15T01:20:18.784Z,22.60
2022-12-15T01:22:48.257Z,22.50
2022-12-15T01:25:18.719Z,23.70
2022-12-15T01:27:47.518Z,29.50
2022-12-15T01:32:46.288Z,27.70
2022-12-15T01:35:16.135Z,23.50
2022-12-15T01:37:44.749Z,27.50
2022-12-15T01:40:33.725Z,28.20
2022-12-15T01:43:02.108Z,23.40
2022-12-15T01:45:30.036Z,27.40
2022-12-15T01:48:07.886Z,20.50
2022-12-15T01:50:54.808Z,27.10
2022-12-15T01:53:23.726Z,30.00
2022-12-15T01:58:20.915Z,24.60
2022-12-15T02:00:49.081Z,26.00
2022-12-15T02:03:17.969Z,25.00
2022-12-15T02:08:14.750Z,19.70
2022-12-15T02:11:01.878Z,26.80
2022-12-15T02:13:54.334Z,37.00
2022-12-15T02:16:42.878Z,26.70
2022-12-15T02:19:16.905Z,25.10
2022-12-15T02:22:20.088Z,21.30
2022-12-15T02:25:03.265Z,12.60
2022-12-15T02:27:47.107Z,20.90
2022-12-15T02:30:17.255Z,19.20
2022-12-15T02:32:54.474Z,30.50
2022-12-15T02:35:36.264Z,20.70
2022-12-15T02:38:04.422Z,30.60
2022-12-15T02:40:32.402Z,32.10
2022-12-15T02:43:03.787Z,39.00
2022-12-15T02:45:55.133Z,29.30
2022-12-15T02:48:32.418Z,27.50
2022-12-15T02:51:23.333Z,20.10
2022-12-15T02:54:11.553Z,28.90
2022-12-15T02:57:07.572Z,24.10
2022-12-15T03:00:00.679Z,24.90
2022-12-15T03:02:32.889Z,33.60
2022-12-15T03:05:01.735Z,31.00
2022-12-15T03:07:30.465Z,23.40
2022-12-15T03:12:28.123Z,26.10
2022-12-15T03:14:56.407Z,29.60
2022-12-15T03:17:24.794Z,29.50
2022-12-15T03:19:52.988Z,31.90
2022-12-15T03:22:21.255Z,29.80
2022-12-15T03:24:49.540Z,22.10
2022-12-15T03:27:17.532Z,24.40
2022-12-15T03:29:45.519Z,28.60
2022-12-15T03:32:13.798Z,31.40
2022-12-15T03:34:42.064Z,38.70
2022-12-15T03:37:10.861Z,31.40
2022-12-15T03:39:39.251Z,26.60
2022-12-15T03:42:07.644Z,21.00
2022-12-15T03:44:35.959Z,27.50
2022-12-15T03:47:04.199Z,24.50
2022-12-15T03:49:32.268Z,26.10
2022-12-15T03:52:00.263Z,29.60
2022-12-15T03:54:28.480Z,25.60
2022-12-15T03:56:56.699Z,25.90
2022-12-15T03:59:24.724Z,26.50
2022-12-15T04:01:52.784Z,13.90
2022-12-15T04:04:20.782Z,25.00
2022-12-15T04:06:48.830Z,32.30
2022-12-15T04:09:16.842Z,33.10
2022-12-15T04:11:45.129Z,37.20
2022-12-15T04:14:13.422Z,36.00
2022-12-15T04:16:41.458Z,23.40
2022-12-15T04:19:28.626Z,33.40
2022-12-15T04:21:58.154Z,27.70
2022-12-15T04:24:44.884Z,27.80
2022-12-15T04:27:31.669Z,21.50
2022-12-15T04:30:18.342Z,24.10
2022-12-15T04:33:05.298Z,49.00
2022-12-15T04:35:53.617Z,27.80
2022-12-15T04:38:49.889Z,27.10
2022-12-15T04:41:40.008Z,37.00
2022-12-15T04:44:28.540Z,43.60
2022-12-15T04:47:15.024Z,34.30
2022-12-15T04:50:01.907Z,25.50
2022-12-15T04:52:48.721Z,33.20
2022-12-15T04:55:35.836Z,39.00
2022-12-15T04:58:29.219Z,58.40
2022-12-15T05:01:16.580Z,49.70
2022-12-15T05:04:03.415Z,50.20
2022-12-15T05:06:50.693Z,71.60
2022-12-15T05:09:37.724Z,41.30
2022-12-15T05:12:24.433Z,48.50
2022-12-15T05:15:11.254Z,43.50
2022-12-15T05:17:59.312Z,59.00
2022-12-15T05:20:45.824Z,71.20
2022-12-15T05:23:36.913Z,48.00
2022-12-15T05:26:23.929Z,44.20
2022-12-15T05:29:10.732Z,37.80
2022-12-15T05:31:55.158Z,33.00
2022-12-15T05:34:27.508Z,29.70
2022-12-15T05:36:57.322Z,33.70
2022-12-15T05:39:27.239Z,45.70
2022-12-15T05:41:56.468Z,59.60
2022-12-15T05:44:26.062Z,58.30
2022-12-15T05:46:54.487Z,41.10
2022-12-15T05:49:25.872Z,45.00
2022-12-15T05:51:54.062Z,47.30
2022-12-15T05:54:22.138Z,43.00
2022-12-15T05:56:50.663Z,57.20
2022-12-15T05:59:19.469Z,63.20
2022-12-15T06:04:16.135Z,40.00
2022-12-15T06:06:44.200Z,38.80
2022-12-15T06:09:12.541Z,24.80
2022-12-15T06:11:41.111Z,38.80
2022-12-15T06:14:09.735Z,36.10
2022-12-15T06:16:44.187Z,74.70
2022-12-15T06:19:20.300Z,101.40
2022-12-15T06:21:48.816Z,39.00
2022-12-15T06:24:16.857Z,60.30
2022-12-15T06:26:44.978Z,70.80
2022-12-15T06:29:13.797Z,195.00
2022-12-15T06:31:43.155Z,92.90
2022-12-15T06:34:14.598Z,99.10
2022-12-15T06:36:43.467Z,60.90
2022-12-15T06:39:14.088Z,102.60
2022-12-15T06:41:43.127Z,46.50
2022-12-15T06:44:16.113Z,42.70
2022-12-15T06:46:45.885Z,35.00
2022-12-15T06:49:14.713Z,41.50
2022-12-15T06:51:44.203Z,74.40
2022-12-15T06:54:13.188Z,100.30
2022-12-15T06:56:42.448Z,54.00
2022-12-15T06:59:11.780Z,40.00
2022-12-15T07:01:41.810Z,39.30
2022-12-15T07:04:11.290Z,41.20
2022-12-15T07:06:40.211Z,41.00
2022-12-15T07:09:13.860Z,46.40
2022-12-15T07:11:42.270Z,53.50
2022-12-15T07:14:11.074Z,39.50
2022-12-15T07:16:39.351Z,34.60
2022-12-15T07:19:12.577Z,42.70
2022-12-15T07:21:41.318Z,40.60
2022-12-15T07:24:13.307Z,57.70
2022-12-15T07:26:41.747Z,51.20
2022-12-15T07:29:10.562Z,55.00
2022-12-15T07:31:39.077Z,49.10
2022-12-15T07:34:07.314Z,57.10
2022-12-15T07:36:35.400Z,57.30
2022-12-15T07:39:04.971Z,72.80
2022-12-15T07:41:33.654Z,51.70
2022-12-15T07:44:02.589Z,43.60
2022-12-15T07:48:58.849Z,68.40
2022-12-15T07:51:27.909Z,52.40
2022-12-15T07:56:24.549Z,45.10
2022-12-15T07:58:53.249Z,45.70
2022-12-15T08:01:21.640Z,52.70
2022-12-15T08:03:49.930Z,63.50
2022-12-15T08:06:18.064Z,64.50
2022-12-15T08:08:49.916Z,57.40
2022-12-15T08:11:21.686Z,68.30
2022-12-15T08:14:10.469Z,58.70
2022-12-15T08:16:38.789Z,67.50
2022-12-15T08:19:10.862Z,63.00
2022-12-15T08:21:41.334Z,73.10
2022-12-15T08:24:10.867Z,97.60
2022-12-15T08:26:39.335Z,80.60
2022-12-15T08:29:48.811Z,74.30
2022-12-15T08:31:59.501Z,76.40
2022-12-15T08:34:28.019Z,81.60
2022-12-15T08:36:56.160Z,57.00
2022-12-15T08:39:24.463Z,83.60
2022-12-15T08:41:52.684Z,59.70
2022-12-15T08:44:21.361Z,73.10
2022-12-15T08:46:49.476Z,64.30
2022-12-15T08:49:21.744Z,53.20
2022-12-15T08:51:51.614Z,71.70
2022-12-15T08:54:20.581Z,52.00
2022-12-15T08:56:49.799Z,75.70
2022-12-15T08:59:19.086Z,61.40
2022-12-15T09:01:47.814Z,51.40
2022-12-15T09:06:50.569Z,38.60
2022-12-15T09:09:19.742Z,31.80
2022-12-15T09:11:49.160Z,40.80
2022-12-15T09:14:21.794Z,42.00
2022-12-15T09:16:53.807Z,55.90
2022-12-15T09:19:22.170Z,39.60
2022-12-15T09:21:50.663Z,48.20
2022-12-15T09:24:28.701Z,58.30
2022-12-15T09:27:04.064Z,37.00
2022-12-15T09:29:32.802Z,33.40
2022-12-15T09:32:01.223Z,30.20
2022-12-15T09:34:29.440Z,35.00
2022-12-15T09:36:57.936Z,33.10
2022-12-15T09:39:26.117Z,28.00
2022-12-15T09:42:00.028Z,19.80
2022-12-15T09:44:32.269Z,29.80
2022-12-15T09:47:09.489Z,38.20
2022-12-15T09:49:48.409Z,32.70
2022-12-15T09:52:19.615Z,29.20
2022-12-15T09:54:48.008Z,30.50
2022-12-15T09:57:38.194Z,45.60
2022-12-15T10:00:16.173Z,38.00
2022-12-15T10:03:06.375Z,40.10
2022-12-15T10:06:20.170Z,44.10
2022-12-15T10:08:56.231Z,40.70
2022-12-15T10:11:37.004Z,63.20
2022-12-15T10:14:11.417Z,66.00
2022-12-15T10:16:52.833Z,50.70
2022-12-15T10:19:39.368Z,40.70
2022-12-15T10:22:14.136Z,65.60
2022-12-15T10:25:09.044Z,65.00
2022-12-15T10:27:51.022Z,37.80
2022-12-15T10:30:19.363Z,48.30
2022-12-15T10:32:57.214Z,35.10
2022-12-15T10:35:33.529Z,40.30
2022-12-15T10:38:05.298Z,43.00
2022-12-15T10:40:57.077Z,45.40
2022-12-15T10:43:36.819Z,65.40
2022-12-15T10:46:12.023Z,43.80
2022-12-15T10:48:42.772Z,51.60
2022-12-15T10:51:13.934Z,38.50
2022-12-15T10:54:03.425Z,53.30
2022-12-15T10:56:34.139Z,43.70
2022-12-15T10:59:21.601Z,58.30
2022-12-15T11:01:50.901Z,45.30
2022-12-15T11:04:33.000Z,48.10
2022-12-15T11:07:04.017Z,62.30
2022-12-15T11:09:37.352Z,51.00
2022-12-15T11:12:42.139Z,50.80
2022-12-15T11:15:31.146Z,74.50
2022-12-15T11:18:11.492Z,83.60
2022-12-15T11:20:49.467Z,42.30
2022-12-15T11:29:28.637Z,37.90
2022-12-15T11:32:00.094Z,56.40
2022-12-15T11:34:38.484Z,44.90
2022-12-15T11:37:34.194Z,77.20
2022-12-15T11:40:26.811Z,30.80
2022-12-15T11:43:17.029Z,36.50
2022-12-15T11:45:52.491Z,44.70
2022-12-15T11:48:39.081Z,36.50
2022-12-15T11:51:40.672Z,74.90
2022-12-15T11:54:30.493Z,40.90
2022-12-15T11:57:09.794Z,59.40
2022-12-15T12:00:09.204Z,52.70
2022-12-15T12:02:59.057Z,29.10
2022-12-15T12:05:39.526Z,42.30
2022-12-15T12:08:29.072Z,87.00
2022-12-15T12:11:13.480Z,105.60
2022-12-15T12:14:11.918Z,50.30
2022-12-15T12:16:58.297Z,127.30
2022-12-15T12:19:57.846Z,45.30
2022-12-15T12:22:32.446Z,71.00
2022-12-15T12:25:15.001Z,61.70
2022-12-15T12:28:06.855Z,55.50
2022-12-15T12:30:43.523Z,74.10
2022-12-15T12:33:15.331Z,59.50
2022-12-15T12:35:49.684Z,90.30
2022-12-15T12:38:25.932Z,38.30
2022-12-15T12:41:09.413Z,50.00
2022-12-15T12:44:00.669Z,47.40
2022-12-15T12:46:43.630Z,69.90
2022-12-15T12:49:26.196Z,53.90
2022-12-15T12:51:59.637Z,78.70
2022-12-15T12:54:39.924Z,85.30
2022-12-15T12:57:14.253Z,68.10
2022-12-15T12:59:49.487Z,65.60
2022-12-15T13:02:20.763Z,56.80
2022-12-15T13:04:58.351Z,44.10
2022-12-15T13:10:16.366Z,40.80
2022-12-15T13:12:54.748Z,43.60
2022-12-15T13:15:29.189Z,29.00
2022-12-15T13:18:06.521Z,52.60
2022-12-15T13:20:39.080Z,56.40
2022-12-15T13:23:19.464Z,41.00
2022-12-15T13:25:55.962Z,37.70
2022-12-15T13:28:27.811Z,47.50
2022-12-15T13:31:23.840Z,41.20
2022-12-15T13:33:55.050Z,50.00
2022-12-15T13:36:41.833Z,54.90
2022-12-15T13:39:13.000Z,45.40
2022-12-15T13:42:00.295Z,45.40
2022-12-15T13:44:32.051Z,37.40
2022-12-15T13:47:15.436Z,51.80
2022-12-15T13:49:53.283Z,50.10
2022-12-15T13:55:46.287Z,50.50
2022-12-15T13:58:20.958Z,48.60
2022-12-15T14:00:55.223Z,57.70
2022-12-15T14:03:24.480Z,45.00
2022-12-15T14:05:58.753Z,42.50
2022-12-15T14:08:30.401Z,40.10
2022-12-15T14:11:07.098Z,50.20
2022-12-15T14:13:47.977Z,39.90
2022-12-15T14:16:23.156Z,51.00
2022-12-15T14:19:17.587Z,58.00
2022-12-15T14:21:57.491Z,49.20
2022-12-15T14:24:41.288Z,64.20
2022-12-15T14:27:09.765Z,52.60
2022-12-15T14:29:38.273Z,70.90
2022-12-15T14:32:10.336Z,63.60
2022-12-15T14:34:42.082Z,71.10
2022-12-15T14:37:19.931Z,52.00
2022-12-15T14:39:50.422Z,54.30
2022-12-15T14:42:23.605Z,62.30
2022-12-15T14:44:57.788Z,84.30
2022-12-15T14:47:34.204Z,92.40
2022-12-15T14:50:04.102Z,58.70
2022-12-15T14:52:36.625Z,74.30
2022-12-15T14:55:23.374Z,72.20
2022-12-15T14:57:53.092Z,88.40
2022-12-15T15:00:28.447Z,295.30
2022-12-15T15:03:19.727Z,213.80
2022-12-15T15:05:57.774Z,84.80
2022-12-15T15:08:29.547Z,182.00
2022-12-15T15:11:01.429Z,291.00
2022-12-15T15:13:40.901Z,112.40
2022-12-15T15:16:16.836Z,103.90
2022-12-15T15:18:50.182Z,82.00
2022-12-15T15:21:22.937Z,139.10
2022-12-15T15:23:58.648Z,90.10
2022-12-15T15:26:27.526Z,91.90
2022-12-15T15:28:55.871Z,78.80
2022-12-15T15:31:41.263Z,76.80
2022-12-15T15:34:09.891Z,93.40
2022-12-15T15:36:39.611Z,95.40
2022-12-15T15:39:15.582Z,108.40
2022-12-15T15:41:44.094Z,106.80
2022-12-15T15:44:14.919Z,106.40
2022-12-15T15:46:51.965Z,154.80
2022-12-15T15:49:23.474Z,149.00
2022-12-15T15:51:51.508Z,107.70
2022-12-15T15:54:23.623Z,117.30
2022-12-15T15:56:51.962Z,126.80
2022-12-15T15:59:21.639Z,88.90
2022-12-15T16:01:55.954Z,80.10
2022-12-15T16:04:24.947Z,118.70
2022-12-15T16:06:53.980Z,122.50
2022-12-15T16:09:24.845Z,108.50
2022-12-15T16:11:53.742Z,103.00
2022-12-15T16:14:22.130Z,115.00
2022-12-15T16:16:50.236Z,107.90
2022-12-15T16:19:18.500Z,105.80
2022-12-15T16:21:50.962Z,133.10
2022-12-15T16:24:19.664Z,114.40
2022-12-15T16:26:50.825Z,94.30
2022-12-15T16:29:21.774Z,113.40
2022-12-15T16:31:50.435Z,157.00
2022-12-15T16:34:20.669Z,146.10
2022-12-15T16:36:48.955Z,95.50
2022-12-15T16:39:29.313Z,86.50
2022-12-15T16:41:58.398Z,91.80
2022-12-15T16:44:29.377Z,88.60
2022-12-15T16:46:59.106Z,89.70
2022-12-15T16:49:33.856Z,127.30
2022-12-15T16:52:06.498Z,155.00
2022-12-15T16:54:34.641Z,126.30
2022-12-15T16:57:04.004Z,132.10
2022-12-15T16:59:33.887Z,120.70
2022-12-15T17:02:22.954Z,172.00
2022-12-15T17:04:52.495Z,132.30
2022-12-15T17:09:51.072Z,97.10
2022-12-15T17:12:19.583Z,94.60
2022-12-15T17:14:47.771Z,106.40
2022-12-15T17:17:18.282Z,88.50
2022-12-15T17:20:19.909Z,67.10
2022-12-15T17:22:34.641Z,72.80
2022-12-15T17:25:02.954Z,79.20
2022-12-15T17:27:31.856Z,113.50
2022-12-15T17:32:28.994Z,139.80
2022-12-15T17:34:57.182Z,131.90
2022-12-15T17:37:28.025Z,142.00
2022-12-15T17:39:58.840Z,166.50
2022-12-15T17:42:27.339Z,116.10
2022-12-15T17:44:55.455Z,123.50
2022-12-15T17:47:24.932Z,160.20
2022-12-15T17:49:53.064Z,138.30
2022-12-15T17:52:34.695Z,150.20
2022-12-15T17:55:08.136Z,139.60
2022-12-15T17:57:36.315Z,141.20
2022-12-15T18:00:19.842Z,150.50
2022-12-15T18:02:49.145Z,87.50
2022-12-15T18:05:18.881Z,82.70
2022-12-15T18:07:59.221Z,72.30
2022-12-15T18:10:31.492Z,71.70
2022-12-15T18:12:59.962Z,51.70
2022-12-15T18:15:31.445Z,85.50
2022-12-15T18:18:00.869Z,71.50
2022-12-15T18:20:28.910Z,67.00
2022-12-15T18:22:57.092Z,97.30
2022-12-15T18:25:28.048Z,106.50
2022-12-15T18:27:58.564Z,122.50
2022-12-15T18:30:27.698Z,105.70
2022-12-15T18:32:58.472Z,105.80
2022-12-15T18:35:35.156Z,98.60
2022-12-15T18:38:16.327Z,94.50
2022-12-15T18:40:49.990Z,75.10
2022-12-15T18:43:21.480Z,106.70
2022-12-15T18:45:50.631Z,98.40
2022-12-15T18:48:30.736Z,91.40
2022-12-15T18:51:00.763Z,96.00
2022-12-15T18:53:30.696Z,87.00
2022-12-15T18:56:06.083Z,55.40
2022-12-15T18:58:36.412Z,48.50
2022-12-15T19:01:06.407Z,61.60
2022-12-15T19:03:36.524Z,66.50
2022-12-15T19:06:21.355Z,58.90
2022-12-15T19:08:52.476Z,61.60
2022-12-15T19:11:31.723Z,60.00
2022-12-15T19:14:02.154Z,44.30
2022-12-15T19:16:53.514Z,77.10
2022-12-15T19:19:40.297Z,65.50
2022-12-15T19:22:30.633Z,74.60
2022-12-15T19:24:59.707Z,69.00
2022-12-15T19:27:27.889Z,76.90
2022-12-15T19:29:56.143Z,101.60
2022-12-15T19:32:24.197Z,81.60
2022-12-15T19:34:52.234Z,87.20
2022-12-15T19:37:25.340Z,82.50
2022-12-15T19:39:54.779Z,72.10
2022-12-15T19:42:35.450Z,87.40
2022-12-15T19:45:16.272Z,93.50
2022-12-15T19:47:44.916Z,103.50
2022-12-15T19:50:18.806Z,81.60
2022-12-15T19:52:50.752Z,60.90
2022-12-15T19:55:25.842Z,77.60
2022-12-15T19:57:53.909Z,96.50
2022-12-15T20:00:24.887Z,102.80
2022-12-15T20:02:55.090Z,98.90
2022-12-15T20:05:25.873Z,95.40
2022-12-15T20:07:54.981Z,93.20
2022-12-15T20:10:31.846Z,92.70
2022-12-15T20:13:01.234Z,141.70
2022-12-15T20:15:29.237Z,118.00
2022-12-15T20:17:57.743Z,112.60
2022-12-15T20:20:28.863Z,107.00
2022-12-15T20:23:01.694Z,107.90
2022-12-15T20:25:34.520Z,136.60
2022-12-15T20:28:03.115Z,121.30
2022-12-15T20:30:35.487Z,101.80
2022-12-15T20:33:05.122Z,134.60
2022-12-15T20:35:36.212Z,141.10
2022-12-15T20:38:20.960Z,154.80
2022-12-15T20:40:49.631Z,159.60
2022-12-15T20:43:20.528Z,149.50
2022-12-15T20:45:59.963Z,163.00
2022-12-15T20:48:30.087Z,181.80
2022-12-15T20:50:58.407Z,174.20
2022-12-15T20:53:27.398Z,167.80
2022-12-15T20:55:56.761Z,178.10
2022-12-15T20:58:32.738Z,189.20
2022-12-15T21:01:01.292Z,172.00
2022-12-15T21:03:33.842Z,150.30
2022-12-15T21:06:02.187Z,182.50
2022-12-15T21:08:31.860Z,179.80
2022-12-15T21:11:14.855Z,201.40
2022-12-15T21:13:43.030Z,187.00
2022-12-15T21:16:19.895Z,196.50
2022-12-15T21:19:18.602Z,205.30
2022-12-15T21:21:41.002Z,146.40
2022-12-15T21:24:23.778Z,166.40
2022-12-15T21:26:52.797Z,174.40
2022-12-15T21:29:24.368Z,187.90
2022-12-15T21:31:52.415Z,152.60
2022-12-15T21:34:20.597Z,183.60
2022-12-15T21:36:52.203Z,203.60
2022-12-15T21:39:30.147Z,243.50
2022-12-15T21:42:00.631Z,255.10
2022-12-15T21:44:28.744Z,224.20
2022-12-15T21:46:57.641Z,180.30
2022-12-15T21:51:58.230Z,164.00
2022-12-15T21:54:31.348Z,166.80
2022-12-15T21:57:00.704Z,125.30
2022-12-15T21:59:30.887Z,153.70
2022-12-15T22:02:18.262Z,221.80
2022-12-15T22:04:48.970Z,227.90
2022-12-15T22:07:17.016Z,224.90
2022-12-15T22:09:45.427Z,209.30
2022-12-15T22:12:22.563Z,281.30
2022-12-15T22:14:52.070Z,214.40
2022-12-15T22:17:22.282Z,206.20
2022-12-15T22:19:50.401Z,243.20
2022-12-15T22:22:18.446Z,263.90
2022-12-15T22:24:46.848Z,222.10
2022-12-15T22:27:20.374Z,259.60
2022-12-15T22:29:50.279Z,243.00
2022-12-15T22:32:18.446Z,184.60
2022-12-15T22:34:46.574Z,231.00
2022-12-15T22:37:14.738Z,240.00
2022-12-15T22:39:42.990Z,226.50
2022-12-15T22:42:17.331Z,196.90
2022-12-15T22:44:46.016Z,152.20
2022-12-15T22:47:14.013Z,165.80
2022-12-15T22:49:42.875Z,206.40
2022-12-15T22:52:18.100Z,222.10
2022-12-15T22:54:46.760Z,128.90
2022-12-15T22:57:25.002Z,171.50
2022-12-15T23:00:00.917Z,135.20
2022-12-15T23:02:35.641Z,130.10
2022-12-15T23:05:04.877Z,119.10
2022-12-15T23:07:35.633Z,120.00
2022-12-15T23:10:23.479Z,128.00
2022-12-15T23:12:54.622Z,110.10
2022-12-15T23:15:42.890Z,116.60
2022-12-15T23:18:11.959Z,122.90
2022-12-15T23:20:40.141Z,132.80
2022-12-15T23:23:10.064Z,112.70
2022-12-15T23:25:38.249Z,128.20
2022-12-15T23:28:06.636Z,146.20
2022-12-15T23:30:35.026Z,344.50
2022-12-15T23:33:03.181Z,252.20
2022-12-15T23:35:31.602Z,193.00
2022-12-15T23:37:59.683Z,224.90
2022-12-15T23:40:27.860Z,287.10
2022-12-15T23:42:55.887Z,352.20
2022-12-15T23:45:23.889Z,279.70
2022-12-15T23:47:51.999Z,213.00
2022-12-15T23:50:22.227Z,204.90
2022-12-15T23:52:51.882Z,209.80
2022-12-15T23:55:20.082Z,194.60
2022-12-15T23:57:48.198Z,159.40
